Iliamna, AK

7:08 AM AKDT on September 29, 2016 (GMT -0800)
Iliamna | | Change Station

Elev 161 ft 59.75 °N, 154.91 °W | Updated 10 minutes ago

Overcast
Overcast
39 °F
Feels Like 33 °F
N
8
Wind Variable Wind from West

Today
High -- | Low -- °F
--% Chance of Precip.
Yesterday
High -- | Low -- °F
Precip. -- in
Pressure 30.58 in
Visibility 2.5 miles
Clouds Overcast 200 ft
Windchill 33 °F
Dew Point 39 °F
Humidity 100%
Rainfall 0.00 in
Snow Depth Not available.
8:22 AM 7:55 PM
Waning Crescent, 2% visible
SPECI PAIL 291458Z 28007KT 2 1/2SM BR OVC002 04/04 A3058 RMK AO2 VIS 3/4V5 T00390039
Pressure 30.58 in
Visibility 2.5 miles
Clouds Overcast 200 ft
Windchill 33 °F
Dew Point 39 °F
Humidity 100%
Rainfall 0.00 in
Snow Depth Not available.
8:22 AM 7:55 PM
Waning Crescent, 2% visible
SPECI PAIL 291458Z 28007KT 2 1/2SM BR OVC002 04/04 A3058 RMK AO2 VIS 3/4V5 T00390039

10-Day Weather Forecast

Almanac

Astronomy

Sep. 29, 2016 Rise Set
Actual Time
Civil Twilight
Nautical Twilight
Astronomical Twilight
Moon
Length of Visible Light
Length of Day
Tomorrow will be .
, % of the Moon is Illuminated

Today's Extremes

State Highs State Lows

Community

WunderPhotos

Upload Photos

1,942,489 photos uploaded!

WunderBlog® & News

Nearby

Air Quality

  Air Quality AQ Index Pollutant
Not available.

Snow Depth

Station Depth Elevation

Earthquake Activity

City Distance Mag. Time & Date
Minimum magnitude displayed is 2.5.

Coastal Water Temperatures

Place Temperature

Stations

Nearby Weather Stations

Station Location Temp. Windchill Dew Point Humidity Wind Precip. Elev Updated Type
                   

Watches & Warnings

There are currently no watches in effect.